Osawatomie, Kansas
Current Conditions -  °F | °C
As of 2:53 PM on Wednesday 17 Dec 2014 (Local Time) from KIXD Reporting Station
Overcast Overcast  
Wind Chill: 25°   Ceiling: 8000
Heat Index: 30°   Visibility: 8mi
Dew Point: 23°   Wind: 5mph
Humidity: 75%   Direction: 90°E
Pressure: 30.24"   Gusts: NA
Location:  38.5°N, 94.95°W
Report Text: KIXD 172053Z 09004KT 8SM OVC080 M01/M05 A3024 RMK AO2 SLP252 60000 T10111050 56024
Loading
Personal Weather Stations






























Interactive Weather Map New forecast layout! Learn more

10-Day Weather Forecast

Advertisements
Track Severe Weather on mobile